createdAt,value
2018-07-08T00:01:25.239Z,95084.08
2018-07-08T00:03:53.904Z,95087.57
2018-07-08T00:06:22.572Z,95083.47
2018-07-08T00:08:51.329Z,95080.35
2018-07-08T00:11:19.998Z,95081.91
2018-07-08T00:13:48.748Z,95089.10
2018-07-08T00:16:17.455Z,95081.33
2018-07-08T00:18:46.504Z,95077.39
2018-07-08T00:21:15.201Z,95075.05
2018-07-08T00:23:43.854Z,95078.17
2018-07-08T00:26:12.632Z,95074.27
2018-07-08T00:28:41.339Z,95074.08
2018-07-08T00:31:10.073Z,95072.13
2018-07-08T00:33:38.727Z,95072.13
2018-07-08T00:36:07.430Z,95075.05
2018-07-08T00:38:36.139Z,95072.32
2018-07-08T00:41:04.820Z,95075.27
2018-07-08T00:43:33.451Z,95076.63
2018-07-08T00:46:02.134Z,95074.47
2018-07-08T00:48:30.748Z,95074.82
2018-07-08T00:50:59.375Z,95074.82
2018-07-08T00:53:28.031Z,95076.19
2018-07-08T00:55:56.708Z,95071.30
2018-07-08T00:58:25.435Z,95069.94
2018-07-08T01:00:54.160Z,95071.30
2018-07-08T01:03:23.180Z,95075.98
2018-07-08T01:05:51.865Z,95083.39
2018-07-08T01:08:20.507Z,95076.38
2018-07-08T01:10:49.229Z,95077.56
2018-07-08T01:13:17.946Z,95076.77
2018-07-08T01:15:46.612Z,95079.68
2018-07-08T01:18:15.324Z,95074.61
2018-07-08T01:20:44.049Z,95073.83
2018-07-08T01:23:12.789Z,95075.96
2018-07-08T01:25:52.535Z,95075.94
2018-07-08T01:28:21.240Z,95073.79
2018-07-08T01:30:49.976Z,95082.58
2018-07-08T01:33:18.703Z,95072.27
2018-07-08T01:35:47.381Z,95078.88
2018-07-08T01:38:16.024Z,95079.67
2018-07-08T01:40:44.678Z,95082.79
2018-07-08T01:43:13.415Z,95075.56
2018-07-08T01:45:42.053Z,95069.73
2018-07-08T01:48:10.779Z,95074.41
2018-07-08T01:50:39.490Z,95071.67
2018-07-08T01:53:08.193Z,95063.11
2018-07-08T01:55:36.900Z,95064.11
2018-07-08T01:58:05.643Z,95066.47
2018-07-08T02:00:34.453Z,95064.11
2018-07-08T02:03:03.153Z,95065.84
2018-07-08T02:05:31.878Z,95065.49
2018-07-08T02:08:00.885Z,95062.39
2018-07-08T02:10:29.510Z,95063.75
2018-07-08T02:12:58.583Z,95055.77
2018-07-08T02:15:27.287Z,95057.13
2018-07-08T02:17:56.007Z,95055.95
2018-07-08T02:20:24.708Z,95059.06
2018-07-08T02:22:53.392Z,95064.15
2018-07-08T02:25:22.107Z,95060.84
2018-07-08T02:27:51.300Z,95058.48
2018-07-08T02:30:19.970Z,95059.66
2018-07-08T02:32:48.688Z,95052.22
2018-07-08T02:35:17.476Z,95052.23
2018-07-08T02:37:46.218Z,95056.28
2018-07-08T02:40:14.851Z,95050.62
2018-07-08T02:42:43.612Z,95054.17
2018-07-08T02:45:12.269Z,95045.41
2018-07-08T02:47:41.019Z,95055.75
2018-07-08T02:50:09.675Z,95051.45
2018-07-08T02:52:38.449Z,95053.18
2018-07-08T02:55:07.180Z,95054.38
2018-07-08T02:57:35.816Z,95053.20
2018-07-08T03:00:05.855Z,95051.25
2018-07-08T03:02:34.549Z,95052.63
2018-07-08T03:05:03.275Z,95057.30
2018-07-08T03:07:31.939Z,95052.63
2018-07-08T03:10:00.672Z,95054.39
2018-07-08T03:12:29.422Z,95055.95
2018-07-08T03:14:58.102Z,95050.30
2018-07-08T03:17:26.743Z,95058.50
2018-07-08T03:19:55.432Z,95059.25
2018-07-08T03:22:24.061Z,95056.92
2018-07-08T03:24:52.669Z,95060.85
2018-07-08T03:27:21.322Z,95055.38
2018-07-08T03:29:49.953Z,95051.86
2018-07-08T03:32:18.602Z,95051.30
2018-07-08T03:34:47.256Z,95053.43
2018-07-08T03:37:15.910Z,95051.47
2018-07-08T03:39:44.560Z,95046.98
2018-07-08T03:42:13.189Z,95044.06
2018-07-08T03:44:41.846Z,95038.78
2018-07-08T03:47:10.479Z,95036.65
2018-07-08T03:49:39.096Z,95034.69
2018-07-08T03:52:07.766Z,95028.63
2018-07-08T03:54:36.447Z,95034.72
2018-07-08T03:57:05.123Z,95034.72
2018-07-08T03:59:33.740Z,95038.22
2018-07-08T04:02:02.398Z,95042.13
2018-07-08T04:04:31.142Z,95039.78
2018-07-08T04:06:59.828Z,95044.45
2018-07-08T04:09:28.495Z,95026.31
2018-07-08T04:11:57.159Z,95045.45
2018-07-08T04:14:25.770Z,95049.54
2018-07-08T04:16:54.495Z,95049.94
2018-07-08T04:19:23.150Z,95050.50
2018-07-08T04:21:51.803Z,95047.20
2018-07-08T04:24:20.436Z,95049.94
2018-07-08T04:26:49.082Z,95040.16
2018-07-08T04:29:17.694Z,95045.05
2018-07-08T04:31:46.441Z,95044.84
2018-07-08T04:34:15.102Z,95047.59
2018-07-08T04:36:43.771Z,95046.60
2018-07-08T04:39:12.419Z,95046.58
2018-07-08T04:41:41.088Z,95047.78
2018-07-08T04:44:09.853Z,95054.02
2018-07-08T04:46:38.527Z,95045.23
2018-07-08T04:49:07.190Z,95051.07
2018-07-08T04:51:35.867Z,95054.39
2018-07-08T04:54:04.527Z,95049.69
2018-07-08T04:56:33.176Z,95047.92
2018-07-08T04:59:01.860Z,95045.36
2018-07-08T05:01:30.530Z,95051.42
2018-07-08T05:03:59.165Z,95050.63
2018-07-08T05:06:27.865Z,95052.80
2018-07-08T05:08:56.504Z,95057.66
2018-07-08T05:11:25.220Z,95059.25
2018-07-08T05:13:53.915Z,95061.41
2018-07-08T05:16:22.547Z,95059.25
2018-07-08T05:18:51.208Z,95069.42
2018-07-08T05:21:19.850Z,95066.09
2018-07-08T05:23:48.500Z,95072.55
2018-07-08T05:26:17.132Z,95068.86
2018-07-08T05:28:45.791Z,95071.23
2018-07-08T05:31:14.466Z,95082.55
2018-07-08T05:33:43.112Z,95072.97
2018-07-08T05:36:11.784Z,95076.48
2018-07-08T05:38:40.468Z,95083.91
2018-07-08T05:41:09.106Z,95088.59
2018-07-08T05:43:37.820Z,95088.20
2018-07-08T05:46:06.510Z,95083.52
2018-07-08T05:48:35.177Z,95088.98
2018-07-08T05:51:03.810Z,95084.06
2018-07-08T05:53:32.447Z,95079.33
2018-07-08T05:56:01.143Z,95087.95
2018-07-08T05:58:29.803Z,95086.74
2018-07-08T06:00:58.466Z,95083.98
2018-07-08T06:03:27.131Z,95083.92
2018-07-08T06:05:55.782Z,95080.16
2018-07-08T06:08:24.498Z,95053.96
2018-07-08T06:10:53.220Z,95082.53
2018-07-08T06:13:21.911Z,95082.23
2018-07-08T06:15:50.586Z,95089.30
2018-07-08T06:18:19.239Z,95087.93
2018-07-08T06:20:47.903Z,95088.05
2018-07-08T06:23:16.611Z,95075.15
2018-07-08T06:25:45.299Z,95077.30
2018-07-08T06:28:14.047Z,95079.13
2018-07-08T06:30:42.749Z,95074.47
2018-07-08T06:33:11.399Z,95078.23
2018-07-08T06:35:40.147Z,95074.30
2018-07-08T06:38:08.796Z,95075.09
2018-07-08T06:40:37.462Z,95075.84
2018-07-08T06:43:06.134Z,95075.09
2018-07-08T06:45:34.848Z,95081.48
2018-07-08T06:48:03.511Z,95077.59
2018-07-08T06:50:32.135Z,95075.81
2018-07-08T06:53:00.828Z,95073.47
2018-07-08T06:55:29.543Z,95071.15
2018-07-08T06:57:58.201Z,95071.86
2018-07-08T07:00:26.932Z,95073.19
2018-07-08T07:02:55.553Z,95083.33
2018-07-08T07:05:24.190Z,95073.60
2018-07-08T07:07:52.840Z,95071.82
2018-07-08T07:10:21.476Z,95076.34
2018-07-08T07:12:50.123Z,95067.54
2018-07-08T07:15:18.811Z,95070.62
2018-07-08T07:17:47.510Z,95071.03
2018-07-08T07:20:16.192Z,95070.82
2018-07-08T07:22:44.873Z,95066.19
2018-07-08T07:25:13.539Z,95075.00
2018-07-08T07:27:42.306Z,95064.57
2018-07-08T07:30:11.140Z,95062.71
2018-07-08T07:32:39.807Z,95058.57
2018-07-08T07:35:08.469Z,95060.63
2018-07-08T07:37:37.212Z,95058.64
2018-07-08T07:40:06.096Z,95059.07
2018-07-08T07:42:35.125Z,95055.69
2018-07-08T07:45:03.927Z,95055.45
2018-07-08T07:47:32.635Z,95060.25
2018-07-08T07:50:01.312Z,95055.31
2018-07-08T07:52:29.953Z,95061.86
2018-07-08T07:54:58.637Z,95059.20
2018-07-08T07:57:27.311Z,95057.93
2018-07-08T07:59:55.943Z,95056.63
2018-07-08T08:02:24.675Z,95058.74
2018-07-08T08:04:53.370Z,95056.33
2018-07-08T08:07:22.063Z,95054.82
2018-07-08T08:09:50.684Z,95059.64
2018-07-08T08:12:19.328Z,95059.95
2018-07-08T08:14:48.013Z,95033.28
2018-07-08T08:17:16.717Z,95059.85
2018-07-08T08:19:45.412Z,95062.11
2018-07-08T08:22:14.104Z,95059.28
2018-07-08T08:24:42.758Z,95059.63
2018-07-08T08:27:11.483Z,95068.61
2018-07-08T08:29:40.142Z,95059.27
2018-07-08T08:32:08.871Z,95070.09
2018-07-08T08:34:56.438Z,95056.64
2018-07-08T08:37:26.480Z,95055.37
2018-07-08T08:39:55.416Z,95052.00
2018-07-08T08:42:24.220Z,95054.95
2018-07-08T08:44:53.881Z,95056.53
2018-07-08T08:47:22.845Z,95057.38
2018-07-08T08:49:52.340Z,95060.41
2018-07-08T08:52:21.160Z,95047.86
2018-07-08T08:54:50.045Z,95037.13
2018-07-08T08:57:18.761Z,95032.95
2018-07-08T08:59:47.527Z,95034.06
2018-07-08T09:02:16.340Z,95025.44
2018-07-08T09:04:45.296Z,95021.31
2018-07-08T09:07:15.205Z,95023.72
2018-07-08T09:09:43.935Z,95021.48
2018-07-08T09:12:12.974Z,95028.72
2018-07-08T09:14:41.735Z,95026.02
2018-07-08T09:17:10.676Z,95031.09
2018-07-08T09:19:39.423Z,95039.92
2018-07-08T09:22:08.718Z,95034.52
2018-07-08T09:24:37.447Z,95039.83
2018-07-08T09:27:06.210Z,95047.61
2018-07-08T09:29:34.861Z,95048.09
2018-07-08T09:32:03.531Z,95051.03
2018-07-08T09:34:32.215Z,95056.15
2018-07-08T09:37:01.896Z,95060.09
2018-07-08T09:39:30.551Z,95070.36
2018-07-08T09:41:59.295Z,95069.06
2018-07-08T09:44:27.934Z,95077.64
2018-07-08T09:46:56.606Z,95067.32
2018-07-08T09:49:25.298Z,95070.71
2018-07-08T09:51:54.119Z,95068.52
2018-07-08T09:54:22.773Z,95067.52
2018-07-08T09:56:52.451Z,95072.17
2018-07-08T09:59:21.189Z,95078.99
2018-07-08T10:01:50.694Z,95072.38
2018-07-08T10:04:20.709Z,95081.36
2018-07-08T10:06:50.217Z,95077.44
2018-07-08T10:09:20.439Z,95074.73
2018-07-08T10:11:49.143Z,95078.83
2018-07-08T10:14:19.111Z,95077.44
2018-07-08T10:16:47.803Z,95075.89
2018-07-08T10:19:17.667Z,95086.21
2018-07-08T10:21:46.423Z,95084.06
2018-07-08T10:24:15.310Z,95094.40
2018-07-08T10:26:43.974Z,95089.16
2018-07-08T10:29:15.376Z,95089.57
2018-07-08T10:31:51.112Z,95090.94
2018-07-08T10:34:19.942Z,95095.00
2018-07-08T10:36:48.626Z,95091.73
2018-07-08T10:39:17.691Z,95099.41
2018-07-08T10:41:46.454Z,95104.55
2018-07-08T10:44:15.384Z,95094.97
2018-07-08T10:46:44.188Z,95094.77
2018-07-08T10:49:12.919Z,95088.66
2018-07-08T10:51:41.618Z,95085.99
2018-07-08T10:54:10.281Z,95078.02
2018-07-08T10:56:39.865Z,95078.22
2018-07-08T10:59:08.628Z,95080.41
2018-07-08T11:01:37.311Z,95084.11
2018-07-08T11:04:06.023Z,95079.43
2018-07-08T11:06:34.714Z,95080.62
2018-07-08T11:09:03.647Z,95075.67
2018-07-08T11:11:32.648Z,95070.00
2018-07-08T11:14:01.330Z,95068.00
2018-07-08T11:16:31.528Z,95059.23
2018-07-08T11:19:00.164Z,95067.11
2018-07-08T11:21:28.880Z,95071.03
2018-07-08T11:23:57.817Z,95064.56
2018-07-08T11:26:26.504Z,95063.80
2018-07-08T11:28:55.195Z,95058.12
2018-07-08T11:31:23.868Z,95057.36
2018-07-08T11:33:52.560Z,95058.71
2018-07-08T11:36:21.242Z,95057.52
2018-07-08T11:38:50.297Z,95061.00
2018-07-08T11:41:19.096Z,95060.23
2018-07-08T11:43:47.885Z,95058.72
2018-07-08T11:46:16.530Z,95059.69
2018-07-08T11:48:45.194Z,95058.34
2018-07-08T11:51:13.943Z,95055.39
2018-07-08T11:53:42.622Z,95058.52
2018-07-08T11:56:11.376Z,95059.28
2018-07-08T11:58:40.141Z,95061.26
2018-07-08T12:01:08.903Z,95055.93
2018-07-08T12:03:37.583Z,95064.28
2018-07-08T12:06:06.381Z,95057.86
2018-07-08T12:08:35.122Z,95060.22
2018-07-08T12:11:03.885Z,95054.95
2018-07-08T12:13:32.592Z,95056.92
2018-07-08T12:16:01.374Z,95054.34
2018-07-08T12:18:30.396Z,95051.70
2018-07-08T12:20:59.132Z,95043.80
2018-07-08T12:23:28.121Z,95045.73
2018-07-08T12:25:56.819Z,95045.33
2018-07-08T12:28:25.626Z,95044.91
2018-07-08T12:30:54.665Z,95042.33
2018-07-08T12:33:23.772Z,95045.32
2018-07-08T12:35:52.568Z,95041.69
2018-07-08T12:38:21.275Z,95044.37
2018-07-08T12:40:49.908Z,95041.27
2018-07-08T12:43:18.605Z,95041.63
2018-07-08T12:45:47.348Z,95048.86
2018-07-08T12:48:16.392Z,95050.25
2018-07-08T12:50:45.045Z,95042.62
2018-07-08T12:53:13.887Z,95044.99
2018-07-08T12:55:43.372Z,95043.11
2018-07-08T12:58:12.081Z,95040.04
2018-07-08T13:00:40.718Z,95036.41
2018-07-08T13:03:09.452Z,95045.59
2018-07-08T13:05:38.251Z,95045.48
2018-07-08T13:08:06.922Z,95050.59
2018-07-08T13:10:35.623Z,95050.31
2018-07-08T13:13:04.312Z,95047.15
2018-07-08T13:15:32.979Z,95044.95
2018-07-08T13:18:01.683Z,95039.97
2018-07-08T13:20:30.440Z,95039.13
2018-07-08T13:22:59.156Z,95034.86
2018-07-08T13:25:28.147Z,95033.92
2018-07-08T13:27:56.833Z,95028.41
2018-07-08T13:30:25.859Z,95043.38
2018-07-08T13:32:55.438Z,95051.48
2018-07-08T13:35:25.032Z,95049.53
2018-07-08T13:37:54.036Z,95047.86
2018-07-08T13:40:22.727Z,95045.58
2018-07-08T13:42:51.383Z,95052.31
2018-07-08T13:45:21.028Z,95039.23
2018-07-08T13:47:49.799Z,95038.63
2018-07-08T13:50:18.447Z,95040.95
2018-07-08T13:52:47.212Z,95039.03
2018-07-08T13:55:15.935Z,95045.70
2018-07-08T13:57:44.667Z,95041.21
2018-07-08T14:00:13.563Z,95045.70
2018-07-08T14:02:42.299Z,95038.45
2018-07-08T14:05:11.134Z,95029.65
2018-07-08T14:07:39.819Z,95030.67
2018-07-08T14:10:08.565Z,95029.70
2018-07-08T14:12:37.262Z,95035.38
2018-07-08T14:15:05.967Z,95038.52
2018-07-08T14:17:34.879Z,95034.03
2018-07-08T14:20:03.566Z,95032.06
2018-07-08T14:22:32.239Z,95042.05
2018-07-08T14:25:01.191Z,95037.16
2018-07-08T14:27:29.891Z,95040.50
2018-07-08T14:29:58.818Z,95040.06
2018-07-08T14:32:27.495Z,95035.97
2018-07-08T14:34:56.243Z,95032.04
2018-07-08T14:37:24.877Z,95037.36
2018-07-08T14:39:53.667Z,95031.30
2018-07-08T14:42:22.395Z,95023.64
2018-07-08T14:44:51.091Z,95030.90
2018-07-08T14:47:19.771Z,95024.25
2018-07-08T14:49:48.543Z,95018.38
2018-07-08T14:52:17.480Z,95013.63
2018-07-08T14:54:46.156Z,95011.63
2018-07-08T14:57:14.850Z,95017.27
2018-07-08T14:59:43.658Z,95015.52
2018-07-08T15:02:12.282Z,95015.90
2018-07-08T15:04:41.003Z,95009.84
2018-07-08T15:07:09.804Z,95013.53
2018-07-08T15:09:38.491Z,95015.48
2018-07-08T15:12:07.154Z,95019.80
2018-07-08T15:14:35.899Z,95025.04
2018-07-08T15:17:04.613Z,95027.56
2018-07-08T15:19:34.008Z,95025.95
2018-07-08T15:22:02.716Z,95026.19
2018-07-08T15:24:31.443Z,95022.26
2018-07-08T15:27:00.184Z,94859.37
2018-07-08T15:29:28.853Z,95030.99
2018-07-08T15:31:57.687Z,95036.09
2018-07-08T15:34:26.592Z,95034.16
2018-07-08T15:36:55.275Z,95038.30
2018-07-08T15:39:25.383Z,95036.77
2018-07-08T15:41:54.178Z,95039.75
2018-07-08T15:44:23.341Z,95037.19
2018-07-08T15:46:52.018Z,95037.20
2018-07-08T15:49:20.848Z,95044.23
2018-07-08T15:51:49.549Z,95037.39
2018-07-08T15:54:18.298Z,95042.31
2018-07-08T15:56:47.005Z,95026.89
2018-07-08T15:59:15.642Z,95033.31
2018-07-08T16:01:44.383Z,95029.75
2018-07-08T16:04:13.097Z,95024.73
2018-07-08T16:06:41.857Z,95033.30
2018-07-08T16:09:11.291Z,95031.17
2018-07-08T16:11:40.081Z,95022.19
2018-07-08T16:14:08.746Z,95026.30
2018-07-08T16:16:37.519Z,95036.64
2018-07-08T16:19:06.411Z,95040.55
2018-07-08T16:21:36.148Z,95049.13
2018-07-08T16:24:05.335Z,95057.32
2018-07-08T16:26:34.280Z,95059.78
2018-07-08T16:29:03.013Z,95061.83
2018-07-08T16:31:32.092Z,95062.61
2018-07-08T16:34:01.144Z,95064.53
2018-07-08T16:36:30.043Z,95065.55
2018-07-08T16:38:58.772Z,95082.63
2018-07-08T16:41:27.834Z,95084.89
2018-07-08T16:43:56.603Z,95084.80
2018-07-08T16:46:25.255Z,95090.27
2018-07-08T16:48:54.283Z,95080.44
2018-07-08T16:51:23.265Z,95082.11
2018-07-08T16:53:52.164Z,95089.62
2018-07-08T16:56:21.068Z,95075.38
2018-07-08T16:58:49.893Z,95078.67
2018-07-08T17:01:18.591Z,95077.71
2018-07-08T17:03:47.600Z,95083.16
2018-07-08T17:06:16.449Z,95085.89
2018-07-08T17:08:45.931Z,95087.03
2018-07-08T17:11:14.680Z,95088.39
2018-07-08T17:13:43.788Z,95094.48
2018-07-08T17:16:12.564Z,95085.19
2018-07-08T17:18:41.693Z,95098.38
2018-07-08T17:21:10.908Z,95098.52
2018-07-08T17:23:39.792Z,95109.98
2018-07-08T17:26:08.535Z,95101.63
2018-07-08T17:28:37.272Z,95105.20
2018-07-08T17:31:06.067Z,95100.72
2018-07-08T17:33:34.938Z,95097.41
2018-07-08T17:36:04.035Z,95103.44
2018-07-08T17:38:32.710Z,95102.13
2018-07-08T17:41:01.580Z,95100.06
2018-07-08T17:43:30.266Z,95097.69
2018-07-08T17:45:59.019Z,95094.61
2018-07-08T17:48:27.717Z,95091.70
2018-07-08T17:50:57.386Z,95091.31
2018-07-08T17:53:26.131Z,95092.86
2018-07-08T17:55:54.870Z,95093.25
2018-07-08T17:58:23.947Z,95087.58
2018-07-08T18:00:52.634Z,95085.86
2018-07-08T18:03:21.532Z,95082.52
2018-07-08T18:05:50.536Z,95085.02
2018-07-08T18:08:19.306Z,95084.84
2018-07-08T18:10:47.970Z,95081.69
2018-07-08T18:13:17.143Z,95098.03
2018-07-08T18:15:46.787Z,95099.58
2018-07-08T18:18:15.489Z,95090.03
2018-07-08T18:20:44.253Z,95099.58
2018-07-08T18:23:12.932Z,95099.57
2018-07-08T18:25:41.650Z,95105.38
2018-07-08T18:28:10.411Z,95106.11
2018-07-08T18:30:39.198Z,95102.77
2018-07-08T18:33:07.862Z,95115.99
2018-07-08T18:35:36.628Z,95118.91
2018-07-08T18:38:05.526Z,95117.54
2018-07-08T18:40:34.272Z,95124.52
2018-07-08T18:43:03.084Z,95129.34
2018-07-08T18:45:31.757Z,95127.23
2018-07-08T18:48:01.183Z,95137.33
2018-07-08T18:50:30.243Z,95133.03
2018-07-08T18:52:59.036Z,95141.42
2018-07-08T18:55:28.142Z,95142.38
2018-07-08T18:57:56.798Z,95143.13
2018-07-08T19:00:25.695Z,95145.02
2018-07-08T19:02:54.404Z,95148.51
2018-07-08T19:05:23.955Z,95140.27
2018-07-08T19:07:52.727Z,95145.72
2018-07-08T19:10:22.002Z,95151.52
2018-07-08T19:12:50.824Z,95150.16
2018-07-08T19:15:19.570Z,95146.28
2018-07-08T19:17:48.353Z,95150.20
2018-07-08T19:20:17.051Z,95155.99
2018-07-08T19:22:46.400Z,95156.97
2018-07-08T19:25:15.071Z,95155.99
2018-07-08T19:27:43.744Z,95155.59
2018-07-08T19:30:12.587Z,95160.25
2018-07-08T19:32:41.295Z,95155.18
2018-07-08T19:35:09.982Z,95153.59
2018-07-08T19:37:38.676Z,95157.06
2018-07-08T19:40:07.389Z,95157.74
2018-07-08T19:42:36.071Z,95155.64
2018-07-08T19:45:04.947Z,95155.74
2018-07-08T19:47:33.882Z,95167.58
2018-07-08T19:50:02.901Z,95157.83
2018-07-08T19:52:31.610Z,95162.64
2018-07-08T19:55:00.384Z,95164.45
2018-07-08T19:57:29.151Z,95158.78
2018-07-08T19:59:57.939Z,95157.83
2018-07-08T20:02:26.931Z,95167.01
2018-07-08T20:04:55.676Z,95156.47
2018-07-08T20:07:24.535Z,95165.45
2018-07-08T20:09:53.303Z,95159.64
2018-07-08T20:12:21.966Z,95159.49
2018-07-08T20:14:50.662Z,95155.06
2018-07-08T20:17:19.717Z,95163.07
2018-07-08T20:19:48.581Z,95163.86
2018-07-08T20:22:17.262Z,95157.06
2018-07-08T20:24:45.962Z,95165.62
2018-07-08T20:27:14.683Z,95153.53
2018-07-08T20:29:43.405Z,95159.79
2018-07-08T20:32:12.193Z,95154.15
2018-07-08T20:34:40.854Z,95161.92
2018-07-08T20:37:10.049Z,95161.16
2018-07-08T20:39:38.762Z,95156.09
2018-07-08T20:42:08.335Z,95146.14
2018-07-08T20:44:37.275Z,95149.59
2018-07-08T20:47:06.029Z,95145.11
2018-07-08T20:49:35.123Z,95152.67
2018-07-08T20:52:03.742Z,95144.31
2018-07-08T20:54:33.163Z,95152.49
2018-07-08T20:57:01.990Z,95145.11
2018-07-08T20:59:30.747Z,95148.41
2018-07-08T21:01:59.671Z,95147.61
2018-07-08T21:04:28.404Z,95142.55
2018-07-08T21:06:57.356Z,95146.20
2018-07-08T21:09:26.019Z,95143.46
2018-07-08T21:11:54.684Z,95145.56
2018-07-08T21:14:23.442Z,95145.39
2018-07-08T21:16:52.126Z,95149.88
2018-07-08T21:19:20.992Z,95140.52
2018-07-08T21:21:49.635Z,95143.06
2018-07-08T21:24:18.291Z,95143.41
2018-07-08T21:26:46.967Z,95143.39
2018-07-08T21:29:15.719Z,95148.67
2018-07-08T21:31:44.483Z,95155.10
2018-07-08T21:34:13.183Z,95153.95
2018-07-08T21:36:42.295Z,95161.96
2018-07-08T21:39:11.716Z,95155.95
2018-07-08T21:41:41.307Z,95154.81
2018-07-08T21:44:10.101Z,95159.66
2018-07-08T21:46:38.902Z,95156.41
2018-07-08T21:49:08.333Z,95160.85
2018-07-08T21:51:37.003Z,95156.94
2018-07-08T21:54:05.795Z,95169.37
2018-07-08T21:56:34.560Z,95162.39
2018-07-08T21:59:03.251Z,95168.67
2018-07-08T22:01:37.465Z,95165.78
2018-07-08T22:04:06.251Z,95167.72
2018-07-08T22:06:34.909Z,95172.61
2018-07-08T22:09:03.927Z,95170.29
2018-07-08T22:11:32.627Z,95165.45
2018-07-08T22:14:01.389Z,95164.33
2018-07-08T22:16:30.132Z,95160.45
2018-07-08T22:18:58.872Z,95171.65
2018-07-08T22:21:27.661Z,95166.41
2018-07-08T22:23:56.508Z,95172.89
2018-07-08T22:26:25.251Z,95166.43
2018-07-08T22:28:53.936Z,95162.56
2018-07-08T22:31:22.596Z,95162.17
2018-07-08T22:33:51.311Z,95161.58
2018-07-08T22:36:20.018Z,95152.97
2018-07-08T22:38:48.697Z,95151.19
2018-07-08T22:41:17.422Z,95160.16
2018-07-08T22:43:46.189Z,95157.84
2018-07-08T22:46:14.942Z,95157.22
2018-07-08T22:48:44.447Z,95158.41
2018-07-08T22:51:13.091Z,95159.79
2018-07-08T22:53:41.934Z,95156.72
2018-07-08T22:56:10.634Z,95158.30
2018-07-08T22:58:39.344Z,95151.42
2018-07-08T23:01:19.183Z,95156.89
2018-07-08T23:03:50.675Z,95154.94
2018-07-08T23:06:20.404Z,95151.25
2018-07-08T23:08:49.818Z,95155.98
2018-07-08T23:11:18.960Z,95153.59
2018-07-08T23:13:48.748Z,95157.11
2018-07-08T23:16:17.610Z,95154.00
2018-07-08T23:18:46.298Z,95147.18
2018-07-08T23:21:14.999Z,95148.76
2018-07-08T23:23:43.670Z,95140.97
2018-07-08T23:26:12.356Z,95134.38
2018-07-08T23:28:41.036Z,95133.38
2018-07-08T23:31:10.242Z,95140.00
2018-07-08T23:33:38.987Z,95140.92
2018-07-08T23:36:08.222Z,95146.78
2018-07-08T23:38:37.011Z,95135.12
2018-07-08T23:41:06.818Z,95139.00
2018-07-08T23:43:35.500Z,95145.41
2018-07-08T23:46:04.617Z,95140.54
2018-07-08T23:48:33.740Z,95140.36
2018-07-08T23:51:02.423Z,95144.80
2018-07-08T23:53:31.219Z,95151.44
2018-07-08T23:55:59.854Z,95140.13
2018-07-08T23:58:28.530Z,95139.52
